Time;durP1;ratioP1;P1;durP2;ratioP2;P2;SDS_P1;SDS_P2;PMS_P1;PMS_P2;Temp;Humidity;BMP_temperature;BMP_pressure;BME280_temperature;BME280_humidity;BME280_pressure;Samples;Min_cycle;Max_cycle;Signal;HPM_P1;HPM_P2
2021/04/10 00:01:49;;;;;;;10.17;5.47;;;;;;;1.85;84.38;100507.16;5005308;28;20972;-82
2021/04/10 00:04:15;;;;;;;10.27;5.40;;;;;;;1.88;85.50;100508.03;5014075;28;20599;-82
2021/04/10 00:06:42;;;;;;;11.93;6.13;;;;;;;1.85;84.77;100507.16;4997770;28;20203;-81
2021/04/10 00:09:09;;;;;;;9.17;5.27;;;;;;;1.87;86.00;100506.31;5003823;28;20669;-81
2021/04/10 00:11:36;;;;;;;9.07;5.00;;;;;;;1.88;86.39;100502.91;5007115;28;20201;-82
2021/04/10 00:14:03;;;;;;;8.80;5.27;;;;;;;1.82;85.38;100501.97;5008347;28;20213;-81
2021/04/10 00:16:29;;;;;;;9.60;5.73;;;;;;;1.83;85.56;100496.84;5008161;28;20202;-81
2021/04/10 00:18:55;;;;;;;10.00;5.77;;;;;;;1.81;85.82;100497.69;5000572;28;20213;-81
2021/04/10 00:21:21;;;;;;;10.27;5.43;;;;;;;1.84;87.29;100496.00;5004192;28;20201;-81
2021/04/10 00:23:48;;;;;;;6.73;4.97;;;;;;;1.79;86.88;100492.53;5004291;28;20202;-82
2021/04/10 00:26:15;;;;;;;8.93;5.83;;;;;;;1.75;86.81;100493.34;5010051;28;20196;-82
2021/04/10 00:28:41;;;;;;;8.63;5.63;;;;;;;1.77;87.15;100488.22;4985572;28;20205;-81
2021/04/10 00:31:08;;;;;;;10.13;5.57;;;;;;;1.71;87.09;100489.06;5004455;28;20199;-82
2021/04/10 00:33:36;;;;;;;9.30;5.60;;;;;;;1.70;87.75;100487.31;4988412;28;20277;-82
2021/04/10 00:36:02;;;;;;;9.40;5.73;;;;;;;1.64;87.07;100488.13;5002490;28;20215;-82
2021/04/10 00:38:30;;;;;;;12.53;5.47;;;;;;;1.66;88.41;100483.00;5003453;28;20676;-81
2021/04/10 00:40:58;;;;;;;9.67;5.33;;;;;;;1.62;88.53;100488.94;5012402;28;20189;-81
2021/04/10 00:43:24;;;;;;;9.17;5.50;;;;;;;1.63;89.75;100485.53;4998498;28;20213;-82
2021/04/10 00:45:50;;;;;;;8.90;5.47;;;;;;;1.55;88.76;100480.34;5008803;28;20208;-81
2021/04/10 00:48:17;;;;;;;7.33;4.90;;;;;;;1.53;88.81;100487.19;5011177;28;20640;-82
2021/04/10 00:50:43;;;;;;;8.67;5.40;;;;;;;1.48;89.19;100494.84;4992158;28;20227;-81
2021/04/10 00:53:10;;;;;;;7.60;5.50;;;;;;;1.44;89.82;100487.97;4988226;28;20202;-81
2021/04/10 00:55:39;;;;;;;9.33;5.43;;;;;;;1.42;90.14;100479.38;5001404;28;20256;-82
2021/04/10 00:58:06;;;;;;;9.60;5.47;;;;;;;1.34;89.14;100486.16;5008714;28;20925;-81
2021/04/10 01:00:32;;;;;;;11.10;5.83;;;;;;;1.36;90.88;100486.19;5009004;28;20198;-81
2021/04/10 01:02:58;;;;;;;8.23;5.67;;;;;;;1.38;91.66;100487.91;4970508;28;20209;-81
2021/04/10 01:05:24;;;;;;;9.33;5.70;;;;;;;1.34;91.91;100486.16;4973930;28;20213;-82
2021/04/10 01:07:50;;;;;;;8.27;5.17;;;;;;;1.20;90.59;100493.72;4978666;28;20240;-81
2021/04/10 01:10:16;;;;;;;7.87;5.00;;;;;;;1.26;91.76;100505.78;4986898;28;20217;-82
2021/04/10 01:12:57;;;;;;;8.97;6.17;;;;;;;1.24;92.26;100502.31;5012257;28;20798;-82
2021/04/10 01:15:31;;;;;;;10.17;5.50;;;;;;;1.19;92.12;100498.84;5006892;28;20221;-81
2021/04/10 01:18:04;;;;;;;11.80;5.13;;;;;;;1.13;91.90;100507.38;4977022;28;20205;-81
2021/04/10 01:20:46;;;;;;;11.20;6.00;;;;;;;1.12;92.82;100495.34;4983333;28;20239;-81
2021/04/10 01:23:47;;;;;;;10.17;5.53;;;;;;;1.05;92.35;100497.00;4993130;28;20710;-81
2021/04/10 01:26:32;;;;;;;8.90;5.53;;;;;;;0.94;91.18;100502.00;4985446;28;20591;-81
2021/04/10 01:29:03;;;;;;;7.73;5.50;;;;;;;0.96;92.03;100506.31;5009647;28;20238;-81
2021/04/10 01:31:36;;;;;;;10.13;5.60;;;;;;;0.91;92.02;100504.53;4987740;28;20281;-81
2021/04/10 01:34:07;;;;;;;8.57;4.97;;;;;;;0.88;91.32;100498.50;5007470;28;20590;-82
2021/04/10 01:36:37;;;;;;;10.03;6.07;;;;;;;0.88;91.80;100493.38;4988014;28;20201;-81
2021/04/10 01:39:07;;;;;;;9.60;5.47;;;;;;;0.88;91.58;100491.69;4985968;28;20198;-81
2021/04/10 01:41:36;;;;;;;9.53;5.70;;;;;;;0.98;93.12;100477.22;4999484;28;20208;-81
2021/04/10 01:44:05;;;;;;;10.23;5.27;;;;;;;0.98;93.15;100482.38;5002767;28;20202;-81
2021/04/10 01:46:33;;;;;;;9.57;5.67;;;;;;;0.98;93.05;100477.22;4985104;28;20269;-81
2021/04/10 01:49:01;;;;;;;9.40;5.83;;;;;;;0.97;92.40;100475.53;4980241;28;20218;-81
2021/04/10 01:51:27;;;;;;;10.23;5.83;;;;;;;1.01;92.89;100477.28;5001449;28;20205;-81
2021/04/10 01:53:54;;;;;;;8.63;5.80;;;;;;;1.01;91.54;100481.56;4992064;28;21565;-82
2021/04/10 01:56:22;;;;;;;10.27;6.53;;;;;;;1.05;92.10;100473.03;4985792;28;20746;-81
2021/04/10 01:58:55;;;;;;;11.50;6.50;;;;;;;1.09;91.88;100474.78;4978558;28;20205;-81
2021/04/10 02:01:35;;;;;;;9.40;5.57;;;;;;;1.09;90.92;100474.78;4981115;28;20242;-81
2021/04/10 02:04:04;;;;;;;9.83;5.60;;;;;;;1.12;91.29;100473.09;5014295;28;20221;-81
2021/04/10 02:06:32;;;;;;;9.07;5.50;;;;;;;1.15;91.36;100469.72;4991800;28;20197;-81
2021/04/10 02:09:04;;;;;;;8.63;5.30;;;;;;;1.16;91.48;100471.41;4984642;28;20685;-81
2021/04/10 02:11:48;;;;;;;9.90;5.50;;;;;;;1.21;91.83;100464.63;4995992;28;20198;-81
2021/04/10 02:14:22;;;;;;;10.30;6.20;;;;;;;1.23;90.99;100456.94;5004326;28;20266;-81
2021/04/10 02:16:51;;;;;;;8.23;5.43;;;;;;;1.27;91.39;100454.41;5003930;28;20215;-82
2021/04/10 02:19:24;;;;;;;9.13;5.70;;;;;;;1.32;91.30;100459.59;4997343;28;20220;-81
2021/04/10 02:22:00;;;;;;;8.47;5.60;;;;;;;1.35;91.25;100458.75;4995108;28;20271;-81
2021/04/10 02:24:28;;;;;;;10.00;6.37;;;;;;;1.38;91.48;100458.78;4989697;28;20223;-81
2021/04/10 02:27:00;;;;;;;10.03;5.87;;;;;;;1.44;91.63;100463.97;5002429;28;20193;-81
2021/04/10 02:29:30;;;;;;;8.07;5.37;;;;;;;1.45;89.88;100473.41;4991475;28;20219;-82
2021/04/10 02:32:05;;;;;;;11.73;5.93;;;;;;;1.49;90.20;100465.72;5003145;28;20207;-81
2021/04/10 02:34:44;;;;;;;8.90;5.67;;;;;;;1.55;90.25;100464.06;4990364;28;20219;-82
2021/04/10 02:37:10;;;;;;;8.90;6.27;;;;;;;1.56;90.33;100458.94;5016701;28;20196;-82
2021/04/10 02:39:42;;;;;;;11.63;6.07;;;;;;;1.60;90.50;100464.94;5019283;28;20177;-81
2021/04/10 02:42:11;;;;;;;8.93;5.83;;;;;;;1.64;91.16;100459.88;4987464;28;20202;-80
2021/04/10 02:44:45;;;;;;;11.03;5.90;;;;;;;1.64;90.52;100444.44;5007445;28;20256;-81
2021/04/10 02:47:16;;;;;;;9.67;5.40;;;;;;;1.68;90.29;100442.75;5005430;28;20183;-81
2021/04/10 02:49:49;;;;;;;8.83;5.30;;;;;;;1.69;89.03;100440.19;5011683;28;20705;-82
2021/04/10 02:52:25;;;;;;;8.07;5.43;;;;;;;1.72;88.69;100436.78;5006816;28;20227;-82
2021/04/10 02:54:53;;;;;;;10.20;5.67;;;;;;;1.77;89.72;100437.66;4994163;28;20222;-81
2021/04/10 02:57:20;;;;;;;9.43;5.17;;;;;;;1.81;90.00;100433.41;4988639;28;20740;-81
2021/04/10 02:59:52;;;;;;;8.33;5.87;;;;;;;1.86;90.91;100439.44;4991873;28;20212;-82
2021/04/10 03:02:19;;;;;;;7.73;5.03;;;;;;;1.88;90.31;100430.03;5005466;28;20830;-81
2021/04/10 03:04:49;;;;;;;8.07;5.43;;;;;;;1.93;90.47;100428.34;4987378;28;20272;-82
2021/04/10 03:07:19;;;;;;;12.27;6.17;;;;;;;1.96;89.98;100430.09;5006659;28;20210;-81
2021/04/10 03:09:48;;;;;;;10.10;5.97;;;;;;;1.98;89.58;100421.53;4993144;28;20219;-81
2021/04/10 03:12:17;;;;;;;8.57;5.77;;;;;;;2.01;89.17;100434.41;4983911;28;20748;-82
2021/04/10 03:14:46;;;;;;;9.30;6.10;;;;;;;2.06;89.05;100424.16;4985081;28;20216;-81
2021/04/10 03:17:15;;;;;;;8.90;5.90;;;;;;;2.11;88.98;100413.88;4980960;28;20208;-81
2021/04/10 03:19:44;;;;;;;9.47;5.80;;;;;;;2.15;88.54;100431.06;4976165;28;20241;-81
2021/04/10 03:22:11;;;;;;;10.10;5.97;;;;;;;2.17;87.88;100427.63;5012975;28;20230;-81
2021/04/10 03:24:38;;;;;;;10.83;5.90;;;;;;;2.23;86.91;100426.78;4966582;28;20224;-81
2021/04/10 03:27:05;;;;;;;9.00;5.70;;;;;;;2.27;87.21;100431.97;4969840;28;20247;-82
2021/04/10 03:29:33;;;;;;;11.40;5.47;;;;;;;2.31;87.37;100425.13;5002910;28;20228;-81
2021/04/10 03:32:04;;;;;;;9.33;6.07;;;;;;;2.35;87.36;100428.56;4989168;28;20200;-81
2021/04/10 03:34:32;;;;;;;7.93;5.33;;;;;;;2.39;87.57;100436.31;4985435;28;20220;-81
2021/04/10 03:37:04;;;;;;;8.60;5.63;;;;;;;2.41;87.09;100442.31;4987028;28;20193;-82
2021/04/10 03:39:31;;;;;;;9.20;5.70;;;;;;;2.44;86.83;100434.59;4987798;28;21053;-81
2021/04/10 03:42:01;;;;;;;8.43;5.80;;;;;;;2.47;87.16;100436.34;4988463;28;20251;-81
2021/04/10 03:44:28;;;;;;;9.80;5.83;;;;;;;2.50;86.67;100441.50;5009000;28;20224;-82
2021/04/10 03:46:55;;;;;;;9.20;5.50;;;;;;;2.53;87.11;100433.78;4983545;28;20193;-81
2021/04/10 03:49:21;;;;;;;9.53;5.70;;;;;;;2.55;86.85;100432.09;5000441;28;20454;-81
2021/04/10 03:51:47;;;;;;;10.50;5.70;;;;;;;2.58;87.23;100434.66;4972764;28;20295;-82
2021/04/10 03:54:16;;;;;;;10.13;5.67;;;;;;;2.62;87.88;100438.97;4981699;28;20251;-82
2021/04/10 03:56:45;;;;;;;9.47;5.67;;;;;;;2.63;88.06;100448.41;5009159;28;20188;-81
2021/04/10 03:59:17;;;;;;;10.37;6.33;;;;;;;2.64;88.09;100445.00;4981900;28;20202;-81
2021/04/10 04:01:51;;;;;;;8.63;5.63;;;;;;;2.68;88.20;100438.13;5000013;28;20204;-81
2021/04/10 04:04:18;;;;;;;11.00;5.80;;;;;;;2.70;86.94;100436.41;4988235;28;20286;-81
2021/04/10 04:06:44;;;;;;;9.00;5.97;;;;;;;2.74;85.88;100442.44;5009006;28;20296;-82
2021/04/10 04:09:10;;;;;;;11.63;5.83;;;;;;;2.76;85.81;100446.75;5009296;28;20224;-82
2021/04/10 04:11:37;;;;;;;8.80;5.43;;;;;;;2.78;86.49;100452.75;5006845;28;20224;-81
2021/04/10 04:14:03;;;;;;;8.77;6.07;;;;;;;2.79;86.92;100449.31;5006295;28;20211;-81
2021/04/10 04:16:29;;;;;;;9.33;6.20;;;;;;;2.82;87.07;100458.78;5005566;28;20204;-82
2021/04/10 04:18:55;;;;;;;11.33;5.93;;;;;;;2.81;86.73;100460.50;5015721;28;20204;-82
2021/04/10 04:21:21;;;;;;;9.43;5.80;;;;;;;2.83;86.16;100453.63;5005192;28;20245;-81
2021/04/10 04:23:48;;;;;;;9.60;5.43;;;;;;;2.88;85.91;100471.66;5005988;28;20213;-82
2021/04/10 04:26:14;;;;;;;11.13;5.83;;;;;;;2.92;87.23;100467.38;5005194;28;20814;-82
2021/04/10 04:28:41;;;;;;;9.20;5.90;;;;;;;2.93;86.94;100481.97;5000440;28;20265;-81
2021/04/10 04:31:07;;;;;;;10.03;6.47;;;;;;;2.94;87.33;100482.00;5004611;28;20254;-82
2021/04/10 04:33:33;;;;;;;8.97;5.80;;;;;;;2.98;86.08;100495.72;5006560;28;20418;-82
2021/04/10 04:35:59;;;;;;;7.80;5.63;;;;;;;3.02;86.92;100495.72;5003968;28;20217;-82
2021/04/10 04:38:25;;;;;;;10.57;6.10;;;;;;;3.05;86.00;100500.03;5006376;28;20211;-82
2021/04/10 04:40:51;;;;;;;9.50;5.87;;;;;;;3.09;86.70;100499.19;5004324;28;20253;-81
2021/04/10 04:43:17;;;;;;;12.33;6.40;;;;;;;3.10;87.47;100507.81;4981388;28;20208;-81
2021/04/10 04:45:44;;;;;;;9.23;5.60;;;;;;;3.11;88.86;100509.50;5000137;28;20276;-82
2021/04/10 04:48:11;;;;;;;11.03;6.03;;;;;;;3.11;89.66;100510.34;5010284;28;20227;-81
2021/04/10 04:50:37;;;;;;;7.63;5.33;;;;;;;3.11;88.08;100514.66;5005967;28;20249;-82
2021/04/10 04:53:03;;;;;;;8.10;5.70;;;;;;;3.15;89.42;100506.06;4986862;28;20663;-81
2021/04/10 04:55:29;;;;;;;8.63;6.53;;;;;;;3.15;89.92;100511.22;5009990;28;20248;-82
2021/04/10 04:57:55;;;;;;;9.60;6.43;;;;;;;3.15;90.60;100506.06;5007533;28;20220;-82
2021/04/10 05:00:21;;;;;;;10.20;6.70;;;;;;;3.10;90.89;100516.38;5000069;28;20203;-82
2021/04/10 05:02:49;;;;;;;11.27;6.43;;;;;;;3.11;91.93;100515.50;4991283;28;20200;-82
2021/04/10 05:05:15;;;;;;;10.40;6.43;;;;;;;3.14;91.87;100515.53;5016628;28;20240;-82
2021/04/10 05:07:42;;;;;;;10.27;6.60;;;;;;;3.11;92.13;100520.66;4989730;28;20201;-82
2021/04/10 05:10:09;;;;;;;10.57;6.73;;;;;;;3.13;92.01;100512.94;5008651;28;20217;-81
2021/04/10 05:12:35;;;;;;;9.87;6.23;;;;;;;3.12;92.05;100514.66;5007398;28;20597;-82
2021/04/10 05:15:01;;;;;;;11.77;6.97;;;;;;;3.15;93.65;100531.81;4995647;28;20272;-82
2021/04/10 05:17:27;;;;;;;11.10;7.40;;;;;;;3.14;93.18;100530.13;5005269;28;20789;-82
2021/04/10 05:19:54;;;;;;;10.60;6.50;;;;;;;3.15;93.20;100539.56;5005805;28;20234;-82
2021/04/10 05:22:20;;;;;;;9.83;5.97;;;;;;;3.20;93.99;100537.84;5005960;28;20211;-82
2021/04/10 05:24:46;;;;;;;10.83;6.83;;;;;;;3.22;94.44;100531.88;5000629;28;20729;-82
2021/04/10 05:27:12;;;;;;;10.13;6.97;;;;;;;3.22;94.35;100526.72;5010056;28;20262;-82
2021/04/10 05:29:38;;;;;;;12.37;7.30;;;;;;;3.21;94.65;100521.56;5009737;28;20272;-82
2021/04/10 05:32:05;;;;;;;12.60;7.40;;;;;;;3.18;95.41;100519.84;5003042;28;20743;-82
2021/04/10 05:34:31;;;;;;;11.03;7.23;;;;;;;3.17;95.54;100528.41;4998272;28;20642;-82
2021/04/10 05:36:58;;;;;;;13.37;7.93;;;;;;;3.17;95.87;100546.47;5001746;28;20280;-82
2021/04/10 05:39:25;;;;;;;14.87;7.43;;;;;;;3.18;97.12;100543.03;4999599;28;20212;-81
2021/04/10 05:41:52;;;;;;;12.40;8.10;;;;;;;3.20;96.82;100548.16;4998462;28;20202;-82
2021/04/10 05:44:18;;;;;;;12.97;8.03;;;;;;;3.19;96.28;100555.03;4997465;28;20263;-82
2021/04/10 05:46:44;;;;;;;10.50;7.70;;;;;;;3.23;98.13;100568.78;5001270;28;20201;-82
2021/04/10 05:49:10;;;;;;;11.67;7.53;;;;;;;3.22;98.29;100565.38;5006508;28;20193;-81
2021/04/10 05:51:36;;;;;;;13.33;7.90;;;;;;;3.21;98.01;100576.53;5008195;28;20254;-82
2021/04/10 05:54:03;;;;;;;11.10;8.50;;;;;;;3.19;98.46;100578.22;4990008;28;20683;-82
2021/04/10 05:56:29;;;;;;;11.90;7.73;;;;;;;3.21;98.44;100583.41;5000325;28;20246;-82
2021/04/10 05:58:55;;;;;;;12.03;8.00;;;;;;;3.22;98.33;100590.28;5005571;28;20675;-82
2021/04/10 06:01:21;;;;;;;12.80;9.17;;;;;;;3.23;98.83;100592.00;4996918;28;20196;-82
2021/04/10 06:03:47;;;;;;;11.27;7.60;;;;;;;3.26;99.11;100601.47;4998728;28;20205;-83
2021/04/10 06:06:13;;;;;;;15.93;10.00;;;;;;;3.25;99.35;100598.00;5006081;28;20227;-82
2021/04/10 06:08:39;;;;;;;16.23;9.83;;;;;;;3.25;100.00;100604.88;4989438;28;20212;-82
2021/04/10 06:11:06;;;;;;;14.93;8.73;;;;;;;3.27;100.00;100603.16;5005503;28;20217;-82
2021/04/10 06:13:32;;;;;;;12.67;8.00;;;;;;;3.30;100.00;100616.91;4990200;28;20259;-82
2021/04/10 06:15:58;;;;;;;11.27;8.23;;;;;;;3.28;100.00;100612.63;5005850;28;20237;-81
2021/04/10 06:18:24;;;;;;;13.30;8.67;;;;;;;3.31;100.00;100607.50;5004778;28;20240;-82
2021/04/10 06:20:50;;;;;;;11.47;8.30;;;;;;;3.32;100.00;100607.47;5012009;28;20213;-81
2021/04/10 06:23:16;;;;;;;16.17;9.70;;;;;;;3.34;100.00;100620.38;4975505;28;20267;-81
2021/04/10 06:25:42;;;;;;;18.17;11.03;;;;;;;3.38;100.00;100615.25;5000703;28;20773;-81
2021/04/10 06:28:09;;;;;;;14.50;9.17;;;;;;;3.43;100.00;100620.41;5004876;28;20251;-81
2021/04/10 06:30:35;;;;;;;16.80;9.97;;;;;;;3.47;100.00;100629.03;4989292;28;20320;-82
2021/04/10 06:33:01;;;;;;;19.10;10.50;;;;;;;3.51;100.00;100623.00;5009683;28;20197;-82
2021/04/10 06:35:28;;;;;;;14.53;8.40;;;;;;;3.55;100.00;100623.03;5001534;28;20247;-81
2021/04/10 06:37:54;;;;;;;14.87;8.60;;;;;;;3.56;100.00;100629.03;5015533;28;20265;-81
2021/04/10 06:40:21;;;;;;;17.67;9.17;;;;;;;3.62;100.00;100629.03;5014033;28;20201;-82
2021/04/10 06:42:47;;;;;;;14.97;9.97;;;;;;;3.64;100.00;100624.78;4992724;28;20260;-82
2021/04/10 06:45:14;;;;;;;16.30;9.27;;;;;;;3.70;100.00;100624.78;4992928;28;20224;-82
2021/04/10 06:47:43;;;;;;;15.33;10.13;;;;;;;3.70;100.00;100627.34;5008783;28;20193;-82
2021/04/10 06:50:10;;;;;;;14.30;9.10;;;;;;;3.73;100.00;100626.47;4990089;28;20233;-81
2021/04/10 06:52:37;;;;;;;13.27;9.03;;;;;;;3.78;100.00;100623.06;5011799;28;20207;-81
2021/04/10 06:55:07;;;;;;;15.53;9.83;;;;;;;3.84;100.00;100616.22;5014637;28;20247;-81
2021/04/10 06:57:39;;;;;;;14.93;10.17;;;;;;;3.84;100.00;100616.22;5018049;28;20200;-82
2021/04/10 07:00:09;;;;;;;17.63;9.67;;;;;;;3.82;100.00;100613.63;5001990;28;20228;-81
2021/04/10 07:02:37;;;;;;;18.97;10.40;;;;;;;3.82;100.00;100616.19;5017593;28;20185;-82
2021/04/10 07:05:04;;;;;;;16.77;10.23;;;;;;;3.82;100.00;100617.91;5029281;28;20254;-82
2021/04/10 07:07:30;;;;;;;15.20;10.17;;;;;;;3.86;100.00;100617.06;5024746;28;20201;-82
2021/04/10 07:09:56;;;;;;;16.37;10.33;;;;;;;3.88;100.00;100617.94;5020827;28;20209;-82
2021/04/10 07:12:22;;;;;;;17.20;9.93;;;;;;;3.93;100.00;100622.22;5003702;28;20205;-81
2021/04/10 07:14:49;;;;;;;16.43;10.47;;;;;;;3.89;100.00;100614.50;4996893;28;20275;-81
2021/04/10 07:17:15;;;;;;;18.47;10.10;;;;;;;3.96;100.00;100618.81;4982312;28;20294;-81
2021/04/10 07:19:43;;;;;;;14.73;9.43;;;;;;;3.97;100.00;100620.50;5005264;28;20255;-82
2021/04/10 07:22:12;;;;;;;16.03;10.30;;;;;;;3.96;100.00;100629.13;5016140;28;20189;-81
2021/04/10 07:24:41;;;;;;;15.17;10.63;;;;;;;4.05;100.00;100628.28;5010029;28;20228;-81
2021/04/10 07:27:09;;;;;;;18.20;11.20;;;;;;;4.10;100.00;100616.25;5008384;28;20189;-81
2021/04/10 07:29:36;;;;;;;15.33;10.37;;;;;;;4.17;100.00;100605.91;5005136;28;20707;-81
2021/04/10 07:32:22;;;;;;;19.63;11.50;;;;;;;4.32;100.00;100615.34;5013325;28;20611;-81
2021/04/10 07:34:49;;;;;;;15.40;10.77;;;;;;;4.54;100.00;100617.94;5002706;28;20229;-81
2021/04/10 07:37:32;;;;;;;17.23;11.63;;;;;;;4.63;100.00;100625.66;5000639;28;20595;-82
2021/04/10 07:39:59;;;;;;;18.70;11.93;;;;;;;4.77;100.00;100633.38;5006405;28;20224;-81
2021/04/10 07:42:26;;;;;;;20.60;12.23;;;;;;;4.86;100.00;100632.50;5009548;28;20204;-82
2021/04/10 07:44:52;;;;;;;20.80;13.23;;;;;;;4.80;100.00;100632.50;4994661;28;20278;-82
2021/04/10 07:47:18;;;;;;;21.67;12.47;;;;;;;4.85;100.00;100631.63;5004723;28;20221;-81
2021/04/10 07:49:44;;;;;;;20.73;13.47;;;;;;;4.96;100.00;100639.38;5003555;28;20217;-81
2021/04/10 07:52:11;;;;;;;21.00;12.53;;;;;;;5.07;100.00;100636.75;4993632;28;20208;-81
2021/04/10 07:54:39;;;;;;;21.97;13.73;;;;;;;5.07;100.00;100642.75;5006615;28;20220;-81
2021/04/10 07:57:08;;;;;;;24.03;13.10;;;;;;;5.10;100.00;100650.50;4998831;28;20193;-81
2021/04/10 07:59:53;;;;;;;19.70;13.00;;;;;;;5.20;100.00;100646.16;5004279;28;20212;-82
2021/04/10 08:02:21;;;;;;;22.87;12.77;;;;;;;5.32;100.00;100650.44;4993502;28;20247;-81
2021/04/10 08:04:55;;;;;;;23.13;13.97;;;;;;;5.40;100.00;100651.25;5008226;28;20307;-82
2021/04/10 08:07:26;;;;;;;21.33;14.10;;;;;;;5.46;100.00;100661.56;5005390;28;20224;-82
2021/04/10 08:09:58;;;;;;;21.80;14.57;;;;;;;5.53;100.00;100654.66;5002468;28;20217;-81
2021/04/10 08:12:27;;;;;;;22.43;13.77;;;;;;;5.56;100.00;100661.50;5011445;28;20634;-81
2021/04/10 08:14:53;;;;;;;24.13;14.07;;;;;;;5.59;100.00;100662.34;5012386;28;20339;-82
2021/04/10 08:17:36;;;;;;;24.47;14.63;;;;;;;5.67;100.00;100664.94;5006389;28;20229;-82
2021/04/10 08:20:19;;;;;;;22.90;14.10;;;;;;;5.87;100.00;100664.81;4991457;28;20208;-82
2021/04/10 08:22:46;;;;;;;21.37;13.67;;;;;;;6.03;100.00;100650.94;4991491;28;20235;-81
2021/04/10 08:25:13;;;;;;;22.73;14.07;;;;;;;6.12;100.00;100660.38;5009335;28;20283;-81
2021/04/10 08:27:40;;;;;;;26.77;13.93;;;;;;;6.13;100.00;100667.25;4992538;28;20283;-83
2021/04/10 08:30:08;;;;;;;21.17;14.17;;;;;;;6.10;100.00;100669.84;5008781;28;20216;-81
2021/04/10 08:32:34;;;;;;;20.47;14.43;;;;;;;6.06;99.48;100675.94;4989701;28;20208;-82
2021/04/10 08:35:00;;;;;;;23.53;14.43;;;;;;;6.03;99.02;100670.75;5010333;28;20263;-82
2021/04/10 08:37:28;;;;;;;18.57;13.70;;;;;;;6.10;99.96;100669.00;5012978;28;20655;-81
2021/04/10 08:39:56;;;;;;;18.77;12.30;;;;;;;6.18;100.00;100675.84;5006667;28;20202;-81
2021/04/10 08:42:24;;;;;;;20.97;12.80;;;;;;;6.20;99.95;100678.44;4990371;28;20227;-81
2021/04/10 08:44:51;;;;;;;19.57;12.97;;;;;;;6.32;100.00;100683.50;5004047;28;20267;-82
2021/04/10 08:47:19;;;;;;;19.83;13.10;;;;;;;6.46;100.00;100691.19;5010108;28;20620;-81
2021/04/10 08:49:48;;;;;;;20.60;12.73;;;;;;;6.43;98.18;100692.03;4996795;28;20640;-81
2021/04/10 08:52:21;;;;;;;22.10;12.73;;;;;;;6.49;98.13;100698.94;5012923;28;20213;-82
2021/04/10 08:54:50;;;;;;;21.37;13.23;;;;;;;6.58;98.24;100692.81;5002739;28;20272;-81
2021/04/10 08:57:17;;;;;;;17.57;12.93;;;;;;;6.60;96.96;100696.25;4984664;28;20284;-82
2021/04/10 08:59:45;;;;;;;21.20;13.97;;;;;;;6.64;97.20;100696.19;5013632;28;20257;-82
2021/04/10 09:02:16;;;;;;;17.97;12.20;;;;;;;6.75;96.09;100697.84;5013115;28;20200;-82
2021/04/10 09:05:05;;;;;;;20.30;12.63;;;;;;;6.97;95.03;100706.28;5012327;28;20819;-82
2021/04/10 09:08:07;;;;;;;19.30;12.73;;;;;;;7.19;93.52;100704.31;5003574;28;20213;-82
2021/04/10 09:10:47;;;;;;;17.40;11.33;;;;;;;7.30;93.83;100707.66;5009249;28;20216;-82
2021/04/10 09:13:39;;;;;;;16.37;11.90;;;;;;;7.42;93.08;100711.81;5005536;28;20216;-82
2021/04/10 09:16:22;;;;;;;15.53;12.07;;;;;;;7.42;92.72;100722.19;5009602;28;20299;-82
2021/04/10 09:18:52;;;;;;;15.20;11.20;;;;;;;7.36;90.33;100730.91;5007342;28;20201;-82
2021/04/10 09:21:23;;;;;;;17.00;11.17;;;;;;;7.36;91.31;100728.31;5004329;28;20219;-82
2021/04/10 09:23:49;;;;;;;14.97;11.23;;;;;;;7.45;91.90;100729.09;5015802;28;20207;-82
2021/04/10 09:26:17;;;;;;;13.67;11.23;;;;;;;7.44;90.70;100733.44;5010337;28;20212;-82
2021/04/10 09:29:18;;;;;;;17.17;11.13;;;;;;;7.45;91.10;100734.28;5003463;28;20205;-82
2021/04/10 09:31:46;;;;;;;17.23;11.30;;;;;;;7.23;89.44;100739.72;4995340;28;20201;-82
2021/04/10 09:34:50;;;;;;;16.67;10.60;;;;;;;7.18;89.75;100741.50;5009392;28;20236;-82
2021/04/10 09:37:57;;;;;;;16.97;10.30;;;;;;;7.28;90.71;100752.63;4992360;28;20484;-82
2021/04/10 09:40:49;;;;;;;15.70;10.57;;;;;;;7.22;90.58;100753.53;5011267;28;20201;-81
2021/04/10 09:43:18;;;;;;;16.97;10.90;;;;;;;7.18;89.42;100762.25;5013235;28;20306;-82
2021/04/10 09:45:45;;;;;;;17.27;11.10;;;;;;;7.25;89.77;100757.84;4994969;28;20221;-82
2021/04/10 09:48:21;;;;;;;16.57;11.03;;;;;;;7.26;89.43;100762.16;5011984;28;20202;-82
2021/04/10 09:51:12;;;;;;;14.33;10.40;;;;;;;7.34;90.54;100766.38;5009883;28;20212;-81
2021/04/10 09:53:39;;;;;;;17.67;12.27;;;;;;;7.31;89.54;100765.56;5000917;28;20232;-81
2021/04/10 09:56:08;;;;;;;21.17;11.60;;;;;;;7.39;90.15;100769.78;5002990;28;20218;-82
2021/04/10 09:58:48;;;;;;;16.50;11.63;;;;;;;7.31;88.16;100779.38;5005581;28;20209;-81
2021/04/10 10:01:18;;;;;;;16.57;10.60;;;;;;;7.31;89.40;100771.59;5000771;28;20467;-81
2021/04/10 10:03:46;;;;;;;15.30;10.77;;;;;;;7.35;88.76;100777.63;5007018;28;20209;-82
2021/04/10 10:06:18;;;;;;;16.27;10.33;;;;;;;7.24;88.24;100779.47;5003743;28;20569;-82
2021/04/10 10:08:44;;;;;;;14.73;10.73;;;;;;;7.25;88.80;100784.66;5009435;28;20215;-81
2021/04/10 10:11:11;;;;;;;18.23;11.93;;;;;;;7.23;88.27;100783.81;5013400;28;20267;-81
2021/04/10 10:13:37;;;;;;;16.07;11.53;;;;;;;7.23;89.03;100791.59;4993865;28;20207;-81
2021/04/10 10:16:04;;;;;;;15.00;11.07;;;;;;;7.18;88.94;100798.56;5006555;28;20240;-81
2021/04/10 10:18:33;;;;;;;16.83;11.53;;;;;;;7.17;88.82;100795.06;5012011;28;20640;-81
2021/04/10 10:21:01;;;;;;;16.17;11.07;;;;;;;7.23;89.98;100799.38;5008082;28;20199;-81
2021/04/10 10:23:29;;;;;;;17.40;12.13;;;;;;;7.20;89.51;100801.97;5013995;28;20197;-81
2021/04/10 10:26:03;;;;;;;17.23;11.83;;;;;;;7.18;88.78;100796.81;5005530;28;20595;-81
2021/04/10 10:28:29;;;;;;;16.23;12.03;;;;;;;7.26;89.59;100798.47;5015777;28;20187;-81
2021/04/10 10:30:59;;;;;;;18.47;12.27;;;;;;;7.36;89.42;100810.47;5002070;28;20227;-81
2021/04/10 10:33:26;;;;;;;19.43;12.03;;;;;;;7.24;87.87;100820.97;5022234;28;20200;-81
2021/04/10 10:35:53;;;;;;;16.83;11.47;;;;;;;7.19;88.94;100814.09;5013282;28;20397;-81
2021/04/10 10:38:19;;;;;;;16.33;12.00;;;;;;;7.19;89.11;100815.81;5016889;28;20929;-82
2021/04/10 10:40:48;;;;;;;19.13;12.37;;;;;;;7.16;89.36;100818.44;5011778;28;20201;-81
2021/04/10 10:43:15;;;;;;;18.13;11.73;;;;;;;7.15;89.76;100814.13;5013115;28;20197;-81
2021/04/10 10:45:47;;;;;;;17.20;11.77;;;;;;;7.18;89.58;100812.38;5011832;28;20213;-81
2021/04/10 10:48:21;;;;;;;17.67;12.33;;;;;;;7.22;89.20;100817.53;5019457;28;20200;-81
2021/04/10 10:50:49;;;;;;;19.03;12.17;;;;;;;7.21;88.73;100814.06;5008826;28;20281;-81
2021/04/10 10:53:17;;;;;;;16.57;12.27;;;;;;;7.24;88.80;100818.38;4994832;28;20209;-82
2021/04/10 10:55:54;;;;;;;15.70;11.60;;;;;;;7.29;89.69;100809.66;5014768;28;20244;-81
2021/04/10 10:58:22;;;;;;;17.90;12.57;;;;;;;7.26;89.76;100811.44;5010911;28;20192;-82
2021/04/10 11:00:48;;;;;;;16.43;12.10;;;;;;;7.29;90.38;100807.06;5016954;28;20535;-82
2021/04/10 11:03:19;;;;;;;18.00;12.90;;;;;;;7.33;90.54;100819.13;5012875;28;20908;-81
2021/04/10 11:05:46;;;;;;;15.40;11.83;;;;;;;7.31;90.17;100812.25;5012626;28;20216;-81
2021/04/10 11:08:12;;;;;;;16.00;12.00;;;;;;;7.32;89.92;100811.38;4998238;28;20197;-81
2021/04/10 11:10:40;;;;;;;18.80;12.23;;;;;;;7.34;88.67;100820.84;5013952;28;20224;-82
2021/04/10 11:13:06;;;;;;;17.73;12.67;;;;;;;7.30;88.03;100814.00;5015011;28;20205;-81
2021/04/10 11:15:32;;;;;;;16.40;12.13;;;;;;;7.34;88.37;100826.06;5019130;28;20213;-81
2021/04/10 11:17:58;;;;;;;19.23;13.27;;;;;;;7.37;87.04;100828.63;5024808;28;20382;-82
2021/04/10 11:20:29;;;;;;;17.97;13.10;;;;;;;7.37;86.21;100831.22;5029209;28;20197;-81
2021/04/10 11:23:06;;;;;;;19.50;11.97;;;;;;;7.37;86.34;100838.16;5021499;28;20204;-81
2021/04/10 11:25:50;;;;;;;18.13;13.47;;;;;;;7.34;86.01;100835.56;5015999;28;20210;-81
2021/04/10 11:28:31;;;;;;;16.60;12.50;;;;;;;7.35;86.13;100842.47;5024009;28;20262;-82
2021/04/10 11:31:04;;;;;;;19.17;13.33;;;;;;;7.40;86.84;100838.09;5012961;28;20220;-81
2021/04/10 11:33:31;;;;;;;21.37;14.20;;;;;;;7.46;86.31;100838.03;5009703;28;20271;-82